createdAt,value
2018-09-18T00:35:13.714Z,18.30
2018-09-18T00:39:08.136Z,17.80
2018-09-18T00:42:56.322Z,17.90
2018-09-18T00:46:22.831Z,17.90
2018-09-18T00:50:02.340Z,17.90
2018-09-18T00:53:37.519Z,17.80
2018-09-18T00:57:14.359Z,17.90
2018-09-18T01:01:02.196Z,18.00
2018-09-18T01:04:55.031Z,17.80
2018-09-18T01:08:43.856Z,17.80
2018-09-18T01:12:24.034Z,17.70
2018-09-18T01:15:49.080Z,17.80
2018-09-18T01:19:14.776Z,17.80
2018-09-18T01:22:40.250Z,17.70
2018-09-18T01:26:05.541Z,17.60
2018-09-18T01:29:31.118Z,17.50
2018-09-18T01:32:56.541Z,17.60
2018-09-18T01:36:22.043Z,17.60
2018-09-18T01:39:47.815Z,17.60
2018-09-18T01:43:14.798Z,17.50
2018-09-18T01:46:40.446Z,17.50
2018-09-18T01:50:06.538Z,17.30
2018-09-18T01:53:31.887Z,17.20
2018-09-18T01:56:57.244Z,17.30
2018-09-18T02:00:22.778Z,17.30
2018-09-18T02:03:48.235Z,17.20
2018-09-18T02:07:14.505Z,17.30
2018-09-18T02:10:40.708Z,17.30
2018-09-18T02:14:05.735Z,17.40
2018-09-18T02:17:31.444Z,17.40
2018-09-18T02:20:57.018Z,17.50
2018-09-18T02:24:22.142Z,17.50
2018-09-18T02:27:47.408Z,17.50
2018-09-18T02:31:12.820Z,17.50
2018-09-18T02:34:38.503Z,17.50
2018-09-18T02:38:03.947Z,17.40
2018-09-18T02:41:29.261Z,17.20
2018-09-18T02:44:54.936Z,17.30
2018-09-18T02:48:21.761Z,17.20
2018-09-18T02:51:47.346Z,17.10
2018-09-18T02:55:12.766Z,17.00
2018-09-18T02:58:38.498Z,16.80
2018-09-18T03:02:03.404Z,16.80
2018-09-18T03:05:28.084Z,16.80
2018-09-18T03:08:53.846Z,16.90
2018-09-18T03:12:18.212Z,16.90
2018-09-18T03:15:42.617Z,16.80
2018-09-18T03:19:06.968Z,16.70
2018-09-18T03:22:31.308Z,16.70
2018-09-18T03:25:55.593Z,16.60
2018-09-18T03:29:20.583Z,16.70
2018-09-18T03:32:48.173Z,17.10
2018-09-18T03:36:14.737Z,17.30
2018-09-18T03:39:40.335Z,17.30
2018-09-18T03:43:04.775Z,17.20
2018-09-18T03:46:28.935Z,16.90
2018-09-18T03:49:54.210Z,16.80
2018-09-18T03:53:19.014Z,16.90
2018-09-18T03:56:44.229Z,16.90
2018-09-18T04:00:09.283Z,16.90
2018-09-18T04:19:19.939Z,16.50
2018-09-18T04:23:45.998Z,16.60
2018-09-18T05:04:00.667Z,16.80
2018-09-18T05:29:50.249Z,16.50
2018-09-18T05:33:36.741Z,16.40
2018-09-18T05:37:09.807Z,16.40
2018-09-18T05:40:52.113Z,16.40
2018-09-18T05:44:21.607Z,16.30
2018-09-18T05:48:04.879Z,16.30
2018-09-18T05:51:34.872Z,16.30
2018-09-18T05:58:57.763Z,16.70
2018-09-18T06:02:22.250Z,16.80
2018-09-18T06:06:18.646Z,16.90
2018-09-18T06:09:44.296Z,17.10
2018-09-18T06:13:09.802Z,17.10
2018-09-18T06:16:38.284Z,17.00
2018-09-18T06:20:04.206Z,17.00
2018-09-18T06:23:40.811Z,17.20
2018-09-18T06:28:37.128Z,17.20
2018-09-18T06:32:01.413Z,17.10
2018-09-18T06:35:27.072Z,17.30
2018-09-18T06:38:51.380Z,17.50
2018-09-18T06:42:19.528Z,17.60
2018-09-18T06:45:43.939Z,17.60
2018-09-18T06:49:08.806Z,17.70
2018-09-18T06:52:33.212Z,17.80
2018-09-18T06:55:58.723Z,17.90
2018-09-18T06:59:23.258Z,18.00
2018-09-18T07:02:47.813Z,18.10
2018-09-18T07:06:12.386Z,18.20
2018-09-18T07:09:36.942Z,18.20
2018-09-18T07:13:03.018Z,18.30
2018-09-18T07:16:29.406Z,18.20
2018-09-18T07:19:59.476Z,18.40
2018-09-18T07:23:23.976Z,18.40
2018-09-18T07:26:49.122Z,18.50
2018-09-18T07:30:13.296Z,18.60
2018-09-18T07:33:37.815Z,18.80
2018-09-18T07:37:02.200Z,18.90
2018-09-18T07:40:29.960Z,19.00
2018-09-18T07:43:58.136Z,19.40
2018-09-18T07:47:25.544Z,19.60
2018-09-18T07:50:52.457Z,19.80
2018-09-18T07:54:23.861Z,20.20
2018-09-18T07:58:30.695Z,20.20
2018-09-18T08:06:00.266Z,20.50
2018-09-18T08:29:00.633Z,20.70
2018-09-18T08:32:55.237Z,20.70
2018-09-18T08:41:55.735Z,20.90
2018-09-18T08:45:34.963Z,21.00
2018-09-18T08:49:05.867Z,21.20
2018-09-18T08:52:36.140Z,21.30
2018-09-18T08:56:06.283Z,21.40
2018-09-18T08:59:32.577Z,21.40
2018-09-18T09:03:14.731Z,21.40
2018-09-18T09:06:53.006Z,21.60
2018-09-18T09:10:37.407Z,21.70
2018-09-18T09:14:28.257Z,21.80
2018-09-18T09:18:20.846Z,21.80
2018-09-18T09:22:08.427Z,21.90
2018-09-18T09:25:43.414Z,22.00
2018-09-18T09:29:09.234Z,22.00
2018-09-18T09:32:56.656Z,22.20
2018-09-18T09:40:35.949Z,22.30
2018-09-18T09:44:37.798Z,22.20
2018-09-18T09:48:23.490Z,22.30
2018-09-18T09:52:16.330Z,22.30
2018-09-18T09:56:43.413Z,22.40
2018-09-18T10:00:18.450Z,22.40
2018-09-18T10:03:50.735Z,22.50
2018-09-18T10:07:59.016Z,22.50
2018-09-18T10:12:06.654Z,22.50
2018-09-18T15:12:29.445Z,24.80
2018-09-18T18:30:15.018Z,22.10
2018-09-18T18:33:49.282Z,22.40
2018-09-18T18:37:16.765Z,22.30
2018-09-18T18:41:30.160Z,22.00
2018-09-18T18:45:06.159Z,21.80
2018-09-18T18:48:30.745Z,22.00
2018-09-18T18:51:55.142Z,22.10
2018-09-18T18:55:19.703Z,22.20
2018-09-18T18:58:44.808Z,22.20
2018-09-18T19:02:09.283Z,22.00
2018-09-18T19:05:49.334Z,21.90
2018-09-18T19:23:48.484Z,21.40
2018-09-18T19:27:15.027Z,21.20
2018-09-18T19:30:45.467Z,20.90
2018-09-18T19:34:38.423Z,20.90
2018-09-18T19:38:05.083Z,20.90
2018-09-18T19:41:30.895Z,21.10
2018-09-18T19:44:55.283Z,21.10
2018-09-18T19:48:28.365Z,21.20
2018-09-18T19:51:53.283Z,21.30
2018-09-18T19:55:43.240Z,21.20
2018-09-18T19:59:07.784Z,20.90
2018-09-18T20:02:32.294Z,20.90
2018-09-18T20:05:56.677Z,20.70
2018-09-18T20:09:20.946Z,20.80
2018-09-18T20:13:15.572Z,21.00
2018-09-18T20:16:41.880Z,21.50
2018-09-18T20:20:09.494Z,21.80
2018-09-18T20:27:33.885Z,21.40
2018-09-18T20:30:59.399Z,21.50
2018-09-18T20:34:23.736Z,21.10
2018-09-18T20:37:47.954Z,21.20
2018-09-18T20:41:12.230Z,21.30
2018-09-18T20:44:36.479Z,21.10
2018-09-18T20:48:00.983Z,21.30
2018-09-18T20:51:28.879Z,21.30
2018-09-18T21:02:45.362Z,21.30
2018-09-18T21:06:12.075Z,21.40
2018-09-18T21:09:45.656Z,21.30
2018-09-18T21:13:21.724Z,21.60
2018-09-18T21:16:47.248Z,21.10
2018-09-18T21:20:19.359Z,21.20
2018-09-18T21:23:50.919Z,21.30
2018-09-18T21:27:15.202Z,21.00
2018-09-18T21:30:40.607Z,21.00
2018-09-18T21:34:07.960Z,20.60
2018-09-18T21:37:33.683Z,20.40
2018-09-18T21:41:00.067Z,20.70
2018-09-18T21:44:25.612Z,20.40
2018-09-18T21:47:53.177Z,20.30
2018-09-18T21:51:17.662Z,20.10
2018-09-18T21:55:14.521Z,19.90
2018-09-18T21:58:43.286Z,19.70
2018-09-18T22:02:30.528Z,19.70
2018-09-18T22:05:55.376Z,19.90
2018-09-18T22:23:51.312Z,19.60
2018-09-18T22:27:15.342Z,18.70
2018-09-18T22:30:39.437Z,18.60
2018-09-18T22:34:03.532Z,18.40
2018-09-18T22:37:27.682Z,18.50
2018-09-18T22:40:51.728Z,18.40
2018-09-18T22:44:15.852Z,18.30
2018-09-18T22:47:39.823Z,18.40
2018-09-18T22:51:03.851Z,18.30
2018-09-18T22:54:28.918Z,18.20
2018-09-18T22:57:52.898Z,18.10
2018-09-18T23:01:16.941Z,18.10
2018-09-18T23:04:40.932Z,18.10
2018-09-18T23:08:04.911Z,18.10
2018-09-18T23:11:28.917Z,18.00
2018-09-18T23:14:52.932Z,17.90
2018-09-18T23:18:17.003Z,17.90
2018-09-18T23:21:41.039Z,17.90
2018-09-18T23:25:05.032Z,17.80
2018-09-18T23:28:29.057Z,17.90
2018-09-18T23:31:54.074Z,17.80
2018-09-18T23:35:18.071Z,17.70
2018-09-18T23:38:42.191Z,17.80
2018-09-18T23:42:06.273Z,17.70
2018-09-18T23:45:30.266Z,17.80
2018-09-18T23:48:54.294Z,17.70
2018-09-18T23:52:18.435Z,17.90
2018-09-18T23:55:42.467Z,17.80
2018-09-18T23:59:06.717Z,17.90
